Time;durP1;ratioP1;P1;durP2;ratioP2;P2;SDS_P1;SDS_P2;PMS_P1;PMS_P2;Temp;Humidity;BMP_temperature;BMP_pressure;BME280_temperature;BME280_humidity;BME280_pressure;Samples;Min_cycle;Max_cycle;Signal;HPM_P1;HPM_P2
2023/06/13 00:01:48;;;;;;;4.10;2.20;;;;;;;8.50;71.64;96746.22;108386;1277;23234;-88
2023/06/13 00:04:32;;;;;;;3.40;2.30;;;;;;;8.62;71.51;96744.02;108417;1274;25414;-87
2023/06/13 00:07:09;;;;;;;4.00;2.40;;;;;;;8.58;71.05;96740.31;108332;1274;22529;-87
2023/06/13 00:09:48;;;;;;;3.10;2.10;;;;;;;8.24;71.08;96735.61;108625;1276;24227;-87
2023/06/13 00:12:24;;;;;;;3.50;2.20;;;;;;;8.05;71.90;96730.48;108594;1272;22529;-87
2023/06/13 00:15:11;;;;;;;3.10;2.10;;;;;;;8.09;72.32;96731.06;108573;1279;22560;-87
2023/06/13 00:17:47;;;;;;;4.60;2.30;;;;;;;8.19;72.20;96732.42;107056;1276;1921083;-88
2023/06/13 00:20:21;;;;;;;3.40;2.80;;;;;;;8.35;72.41;96726.92;108579;1272;22556;-87
2023/06/13 00:23:07;;;;;;;3.60;2.20;;;;;;;8.51;72.44;96726.49;108609;1272;22606;-87
2023/06/13 00:25:40;;;;;;;4.00;2.50;;;;;;;8.46;72.08;96725.33;108550;1279;22541;-87
2023/06/13 00:28:12;;;;;;;4.80;2.10;;;;;;;8.23;71.92;96720.70;107139;1274;2006333;-87
2023/06/13 00:30:45;;;;;;;5.40;2.30;;;;;;;8.00;71.96;96718.73;108600;1279;22561;-87
2023/06/13 00:33:17;;;;;;;3.10;2.10;;;;;;;7.80;72.41;96716.32;108531;1273;24287;-87
2023/06/13 00:35:52;;;;;;;3.20;2.40;;;;;;;7.72;73.10;96713.85;108592;1279;22520;-87
2023/06/13 00:38:28;;;;;;;2.70;1.90;;;;;;;7.79;73.51;96713.99;108488;1278;49313;-87
2023/06/13 00:41:04;;;;;;;2.90;2.40;;;;;;;7.75;73.21;96711.50;108530;1279;22524;-87
2023/06/13 00:43:38;;;;;;;2.90;2.10;;;;;;;7.57;73.27;96710.67;108608;1274;22525;-87
2023/06/13 00:46:13;;;;;;;3.40;1.90;;;;;;;7.45;73.52;96706.86;108542;1272;22600;-87
2023/06/13 00:48:51;;;;;;;4.30;2.40;;;;;;;7.36;73.75;96703.27;108489;1275;105806;-87
2023/06/13 00:51:36;;;;;;;3.70;2.40;;;;;;;7.36;74.34;96701.48;108592;1279;22640;-88
2023/06/13 00:54:18;;;;;;;3.20;2.40;;;;;;;7.40;74.46;96705.14;108574;1273;22548;-87
2023/06/13 00:56:50;;;;;;;3.40;2.00;;;;;;;7.36;74.59;96706.81;108580;1279;22658;-87
2023/06/13 00:59:22;;;;;;;5.40;2.50;;;;;;;7.29;74.79;96707.34;108446;1274;100338;-87
2023/06/13 01:01:54;;;;;;;4.00;2.70;;;;;;;7.17;74.51;96710.27;108581;1279;22644;-87
2023/06/13 01:04:34;;;;;;;3.70;2.70;;;;;;;7.02;74.96;96705.20;108619;1279;22702;-87
2023/06/13 01:07:11;;;;;;;5.00;2.40;;;;;;;6.94;75.57;96703.73;108521;1274;22522;-86
2023/06/13 01:09:44;;;;;;;4.40;2.40;;;;;;;6.96;76.31;96708.06;107232;1268;1796356;-87
2023/06/13 01:12:27;;;;;;;3.60;2.40;;;;;;;7.06;76.75;96706.19;108566;1275;22519;-87
2023/06/13 01:15:06;;;;;;;2.30;1.90;;;;;;;7.18;77.22;96705.01;108378;1274;22504;-87
2023/06/13 01:17:57;;;;;;;3.20;2.80;;;;;;;7.30;77.71;96709.30;108509;1273;51450;-87
2023/06/13 01:20:35;;;;;;;2.90;2.10;;;;;;;7.46;78.02;96712.20;108406;1272;22531;-87
2023/06/13 01:23:17;;;;;;;2.30;1.80;;;;;;;7.65;78.01;96707.59;108591;1278;22524;-88
2023/06/13 01:26:05;;;;;;;3.70;2.00;;;;;;;7.81;78.02;96702.97;108536;1279;22526;-87
2023/06/13 01:28:38;;;;;;;4.40;2.50;;;;;;;7.98;77.95;96701.29;108517;1279;59601;-88
2023/06/13 01:31:14;;;;;;;5.20;2.40;;;;;;;8.12;77.41;96700.39;108604;1279;22542;-87
2023/06/13 01:33:51;;;;;;;3.30;2.30;;;;;;;8.16;76.88;96698.92;108535;1277;22532;-87
2023/06/13 01:36:26;;;;;;;3.00;2.30;;;;;;;8.12;76.54;96693.05;108564;1276;22544;-88
2023/06/13 01:39:00;;;;;;;3.50;2.10;;;;;;;8.13;76.52;96692.77;108520;1274;54088;-87
2023/06/13 01:41:32;;;;;;;3.80;1.90;;;;;;;7.96;76.28;96695.73;108642;1275;22533;-87
2023/06/13 01:44:07;;;;;;;4.50;2.60;;;;;;;7.74;76.23;96695.98;108548;1279;24243;-88
2023/06/13 01:46:49;;;;;;;3.80;2.30;;;;;;;7.55;76.70;96692.77;108613;1278;22565;-87
2023/06/13 01:49:30;;;;;;;3.30;1.80;;;;;;;7.43;76.98;96693.38;104657;1274;5172378;-87
2023/06/13 01:52:22;;;;;;;3.00;2.10;;;;;;;7.42;77.43;96697.29;108563;1279;25223;-87
2023/06/13 01:55:03;;;;;;;2.50;2.00;;;;;;;7.40;77.59;96695.80;108551;1278;22532;-86
2023/06/13 01:57:45;;;;;;;3.40;2.30;;;;;;;7.43;77.63;96694.60;107892;1279;2203740;-87
2023/06/13 02:00:19;;;;;;;3.70;2.20;;;;;;;7.46;77.79;96696.95;108559;1272;22597;-87
2023/06/13 02:02:55;;;;;;;4.20;2.50;;;;;;;7.61;77.85;96696.81;108522;1279;22561;-87
2023/06/13 02:05:29;;;;;;;4.20;2.30;;;;;;;7.64;77.77;96691.13;108605;1276;25236;-87
2023/06/13 02:08:02;;;;;;;4.20;2.50;;;;;;;7.55;77.81;96687.76;108526;1279;62548;-87
2023/06/13 02:10:36;;;;;;;7.60;3.00;;;;;;;7.45;78.09;96685.13;108620;1279;22649;-87
2023/06/13 02:13:12;;;;;;;3.10;2.10;;;;;;;7.41;78.29;96685.20;108558;1279;24278;-87
2023/06/13 02:15:44;;;;;;;3.50;2.60;;;;;;;7.39;78.68;96682.55;108561;1271;24271;-87
2023/06/13 02:18:16;;;;;;;4.20;2.40;;;;;;;7.37;78.89;96684.14;107138;1279;1883188;-87
2023/06/13 02:20:47;;;;;;;4.60;2.20;;;;;;;7.34;78.88;96680.90;108610;1279;22527;-86
2023/06/13 02:23:25;;;;;;;3.00;2.30;;;;;;;7.30;79.34;96682.92;108476;1279;148849;-87
2023/06/13 02:25:59;;;;;;;3.30;2.20;;;;;;;7.33;79.74;96675.73;108561;1278;22520;-86
2023/06/13 02:28:31;;;;;;;3.50;2.20;;;;;;;7.32;79.45;96675.77;108485;1272;56903;-86
2023/06/13 02:31:07;;;;;;;3.60;2.70;;;;;;;7.27;79.45;96676.68;108570;1276;22713;-87
2023/06/13 02:33:40;;;;;;;4.00;2.40;;;;;;;7.28;79.61;96680.70;108529;1279;25349;-87
2023/06/13 02:36:16;;;;;;;4.30;2.30;;;;;;;7.36;79.33;96681.81;108524;1279;22582;-87
2023/06/13 02:38:51;;;;;;;5.20;2.80;;;;;;;7.22;78.79;96679.55;107009;1276;2070165;-87
2023/06/13 02:41:28;;;;;;;3.40;2.60;;;;;;;7.08;79.28;96678.48;108587;1272;22583;-86
2023/06/13 02:44:06;;;;;;;6.50;2.80;;;;;;;7.05;79.79;96677.20;108543;1273;22524;-86
2023/06/13 02:46:39;;;;;;;5.00;2.80;;;;;;;7.09;80.18;96678.43;108513;1279;22573;-86
2023/06/13 02:49:15;;;;;;;5.80;3.00;;;;;;;7.12;80.31;96678.38;108549;1272;53032;-87
2023/06/13 02:51:48;;;;;;;3.50;2.40;;;;;;;7.17;80.49;96682.20;108579;1277;24244;-87
2023/06/13 02:54:26;;;;;;;5.10;2.80;;;;;;;7.26;80.93;96684.48;108525;1279;22586;-86
2023/06/13 02:57:01;;;;;;;5.50;2.40;;;;;;;7.41;80.81;96684.84;108552;1280;22549;-86
2023/06/13 02:59:33;;;;;;;3.50;2.60;;;;;;;7.47;80.73;96681.40;108457;1280;85184;-87
2023/06/13 03:02:04;;;;;;;4.00;2.70;;;;;;;7.51;81.04;96687.38;108569;1276;24209;-86
2023/06/13 03:04:44;;;;;;;3.20;2.40;;;;;;;7.53;81.04;96684.69;108549;1279;22559;-87
2023/06/13 03:07:20;;;;;;;4.00;2.50;;;;;;;7.57;81.14;96690.14;108527;1279;22648;-86
2023/06/13 03:09:54;;;;;;;3.30;2.30;;;;;;;7.59;81.26;96688.04;106661;1279;2561459;-87
2023/06/13 03:12:29;;;;;;;5.00;2.60;;;;;;;7.64;81.63;96690.23;108594;1279;24256;-87
2023/06/13 03:15:06;;;;;;;3.00;2.20;;;;;;;7.70;81.67;96689.77;108518;1279;25297;-87
2023/06/13 03:17:38;;;;;;;4.30;3.00;;;;;;;7.79;82.05;96687.77;108594;1277;22543;-87
2023/06/13 03:20:11;;;;;;;5.40;3.00;;;;;;;7.96;82.27;96686.40;108366;1277;45952;-86
2023/06/13 03:22:43;;;;;;;5.00;2.80;;;;;;;8.11;82.07;96688.08;108560;1277;22531;-87
2023/06/13 03:25:18;;;;;;;4.90;2.40;;;;;;;8.22;81.84;96690.70;108537;1278;22559;-87
2023/06/13 03:27:57;;;;;;;3.10;2.50;;;;;;;8.16;81.47;96687.30;108432;1273;75564;-87
2023/06/13 03:30:34;;;;;;;3.00;2.30;;;;;;;8.06;81.51;96685.70;108525;1279;25420;-87
2023/06/13 03:33:06;;;;;;;5.50;2.90;;;;;;;8.15;81.73;96688.63;108534;1272;25300;-86
2023/06/13 03:35:44;;;;;;;4.10;2.20;;;;;;;8.26;81.59;96689.02;108541;1279;22535;-87
2023/06/13 03:38:16;;;;;;;4.30;2.60;;;;;;;8.35;81.51;96689.75;108485;1274;86053;-86
2023/06/13 03:40:49;;;;;;;4.20;2.80;;;;;;;8.33;81.63;96688.36;108400;1279;22547;-86
2023/06/13 03:43:23;;;;;;;3.10;2.40;;;;;;;8.30;81.73;96686.55;108399;1277;24266;-86
2023/06/13 03:46:01;;;;;;;6.40;3.00;;;;;;;8.27;81.75;96682.94;108393;1277;22549;-87
2023/06/13 03:48:33;;;;;;;6.10;2.90;;;;;;;8.32;82.08;96685.81;107128;1272;1734918;-87
2023/06/13 03:51:05;;;;;;;5.00;2.50;;;;;;;8.47;82.50;96689.66;108569;1276;22665;-86
2023/06/13 03:53:36;;;;;;;4.00;3.20;;;;;;;8.68;82.71;96689.69;108554;1279;24225;-87
2023/06/13 03:56:08;;;;;;;4.30;3.30;;;;;;;8.84;82.55;96682.55;108535;1277;22528;-87
2023/06/13 03:58:40;;;;;;;4.90;3.30;;;;;;;8.96;82.26;96681.80;108501;1279;86406;-86
2023/06/13 04:01:16;;;;;;;3.70;3.20;;;;;;;9.03;82.14;96680.27;108610;1278;22669;-86
2023/06/13 04:03:52;;;;;;;4.60;3.10;;;;;;;9.12;82.20;96679.30;108564;1274;22526;-86
2023/06/13 04:06:25;;;;;;;4.10;3.20;;;;;;;9.24;82.18;96677.44;108578;1279;25264;-86
2023/06/13 04:09:05;;;;;;;4.50;3.10;;;;;;;9.38;82.18;96678.35;108487;1279;37661;-87
2023/06/13 04:11:46;;;;;;;4.50;3.10;;;;;;;9.49;82.12;96675.80;108550;1279;22524;-87
2023/06/13 04:14:27;;;;;;;4.70;3.00;;;;;;;9.57;81.70;96673.65;108569;1275;23984;-86
2023/06/13 04:17:04;;;;;;;4.10;2.90;;;;;;;9.63;81.47;96677.34;108537;1277;22531;-86
2023/06/13 04:19:38;;;;;;;5.60;3.20;;;;;;;9.68;81.21;96673.71;108494;1277;86290;-87
2023/06/13 04:22:13;;;;;;;4.40;3.40;;;;;;;9.77;81.16;96664.27;108530;1277;22525;-87
2023/06/13 04:24:50;;;;;;;4.40;3.20;;;;;;;9.86;80.90;96662.80;108604;1272;22560;-87
2023/06/13 04:27:27;;;;;;;5.70;3.50;;;;;;;9.92;80.89;96662.07;108581;1279;22539;-87
2023/06/13 04:30:09;;;;;;;4.70;3.30;;;;;;;10.01;80.69;96656.64;107026;1272;1817364;-87
2023/06/13 04:32:45;;;;;;;4.50;3.50;;;;;;;10.09;80.67;96654.35;108524;1279;22550;-87
2023/06/13 04:35:25;;;;;;;4.60;2.90;;;;;;;10.18;80.49;96653.11;108555;1279;22583;-87
2023/06/13 04:38:04;;;;;;;2.70;2.10;;;;;;;10.23;80.28;96649.33;108518;1279;60296;-86
2023/06/13 04:40:40;;;;;;;4.00;2.90;;;;;;;10.30;80.09;96650.79;108428;1277;22543;-86
2023/06/13 04:43:17;;;;;;;3.30;2.80;;;;;;;10.37;80.00;96650.04;108418;1280;22566;-87
2023/06/13 04:45:49;;;;;;;6.50;3.00;;;;;;;10.36;79.56;96647.28;108368;1267;22531;-87
2023/06/13 04:48:25;;;;;;;3.60;3.00;;;;;;;10.39;79.59;96654.20;108346;1280;64686;-86
2023/06/13 04:50:59;;;;;;;3.50;2.80;;;;;;;10.50;79.76;96653.65;108429;1280;22538;-86
2023/06/13 04:53:37;;;;;;;3.90;2.90;;;;;;;10.60;79.65;96656.88;108366;1278;22528;-87
2023/06/13 04:56:10;;;;;;;4.70;3.00;;;;;;;10.69;79.52;96659.45;108356;1274;23569;-87
2023/06/13 04:58:44;;;;;;;4.10;3.00;;;;;;;10.80;79.45;96657.03;108330;1280;88718;-87
2023/06/13 05:01:26;;;;;;;5.10;2.90;;;;;;;10.94;79.34;96662.48;108437;1280;22618;-86
2023/06/13 05:04:03;;;;;;;4.90;3.10;;;;;;;11.06;79.27;96659.51;108399;1280;22655;-87
2023/06/13 05:06:37;;;;;;;8.10;3.10;;;;;;;11.20;78.97;96654.44;108419;1280;24242;-87
2023/06/13 05:09:14;;;;;;;5.00;3.00;;;;;;;11.35;78.76;96654.13;108387;1279;102508;-87
2023/06/13 05:11:47;;;;;;;4.50;2.80;;;;;;;11.52;78.67;96656.08;108525;1276;22530;-86
2023/06/13 05:14:19;;;;;;;5.00;3.60;;;;;;;11.73;78.60;96650.89;108530;1277;22535;-86
2023/06/13 05:17:05;;;;;;;5.20;3.00;;;;;;;12.00;78.73;96648.09;108572;1279;22524;-86
2023/06/13 05:19:40;;;;;;;4.20;2.80;;;;;;;12.32;78.13;96645.52;108484;1279;61621;-86
2023/06/13 05:22:12;;;;;;;4.40;2.70;;;;;;;13.23;80.13;96644.37;108412;1279;22529;-86
2023/06/13 05:24:50;;;;;;;3.50;2.60;;;;;;;15.23;81.37;96642.28;108523;1279;22522;-86
2023/06/13 05:27:24;;;;;;;4.40;2.70;;;;;;;17.57;79.27;96637.39;108539;1279;24222;-86
2023/06/13 05:29:56;;;;;;;5.70;2.70;;;;;;;19.41;74.85;96637.91;108419;1277;56047;-86
2023/06/13 05:32:37;;;;;;;3.90;2.70;;;;;;;20.89;71.39;96642.71;108408;1280;23286;-85
2023/06/13 05:35:12;;;;;;;3.70;2.60;;;;;;;21.83;66.83;96646.75;108425;1277;22529;-87
2023/06/13 05:37:43;;;;;;;3.60;2.00;;;;;;;22.84;65.38;96648.56;108437;1277;22537;-86
2023/06/13 05:40:16;;;;;;;5.00;2.30;;;;;;;23.67;61.37;96649.90;108411;1275;39898;-86
2023/06/13 05:42:48;;;;;;;3.40;2.20;;;;;;;23.86;58.94;96648.27;108398;1278;22649;-86
2023/06/13 05:45:19;;;;;;;5.20;2.50;;;;;;;24.18;57.75;96648.50;108392;1280;22570;-87
2023/06/13 05:47:51;;;;;;;4.30;2.50;;;;;;;25.09;56.74;96651.23;108381;1266;22842;-86
2023/06/13 05:50:24;;;;;;;4.30;2.40;;;;;;;25.68;54.61;96650.89;108406;1278;22544;-86
2023/06/13 05:52:56;;;;;;;3.30;2.20;;;;;;;26.19;53.30;96647.73;108439;1280;22554;-87
2023/06/13 05:55:27;;;;;;;3.10;2.30;;;;;;;26.56;50.70;96648.73;108407;1277;22736;-86
2023/06/13 05:58:00;;;;;;;5.60;2.20;;;;;;;26.19;49.38;96652.14;108328;1274;73229;-86
2023/06/13 06:00:35;;;;;;;3.20;2.30;;;;;;;25.34;47.32;96652.50;108420;1280;23580;-86
2023/06/13 06:03:07;;;;;;;4.50;2.30;;;;;;;24.02;47.40;96648.81;108396;1275;22526;-86
2023/06/13 06:05:41;;;;;;;3.60;2.90;;;;;;;23.88;48.81;96643.17;108400;1280;27333;-86
2023/06/13 06:08:13;;;;;;;5.00;2.70;;;;;;;23.99;48.55;96645.83;108362;1278;73586;-87
2023/06/13 06:10:45;;;;;;;3.40;2.40;;;;;;;24.63;48.76;96649.60;110119;1255;22407;-88
2023/06/13 06:13:20;;;;;;;6.40;2.40;;;;;;;25.10;47.10;96652.36;108663;1270;46779;-88
2023/06/13 06:15:52;;;;;;;3.70;2.00;;;;;;;25.32;46.93;96648.30;108697;1272;22521;-87
2023/06/13 06:18:27;;;;;;;3.00;2.10;;;;;;;25.83;45.74;96648.30;108624;1276;24255;-88
2023/06/13 06:21:00;;;;;;;4.90;2.40;;;;;;;24.15;44.24;96645.87;108732;1278;22572;-88
2023/06/13 06:23:31;;;;;;;3.40;2.20;;;;;;;22.24;45.04;96647.73;108511;1274;55770;-88
2023/06/13 06:26:04;;;;;;;2.30;2.00;;;;;;;20.84;46.18;96650.95;108660;1272;22542;-88
2023/06/13 06:28:36;;;;;;;2.60;2.00;;;;;;;19.87;47.33;96649.77;108663;1271;22529;-88
2023/06/13 06:31:07;;;;;;;3.80;2.10;;;;;;;19.23;48.13;96649.05;108693;1278;25295;-88
2023/06/13 06:33:39;;;;;;;2.90;2.10;;;;;;;19.24;49.53;96647.41;108650;1278;58158;-88
2023/06/13 06:36:12;;;;;;;3.40;1.70;;;;;;;20.13;50.48;96649.17;108674;1278;22570;-88
2023/06/13 06:38:44;;;;;;;2.00;1.30;;;;;;;21.24;49.53;96645.19;108690;1271;22637;-88
2023/06/13 06:41:16;;;;;;;2.00;1.60;;;;;;;21.90;48.60;96644.13;108689;1278;22575;-90
2023/06/13 06:43:47;;;;;;;2.90;1.50;;;;;;;22.14;47.15;96644.72;108461;1277;48959;-90
2023/06/13 06:46:19;;;;;;;1.80;1.10;;;;;;;21.39;45.14;96644.19;108720;1278;24189;-91
2023/06/13 06:48:50;;;;;;;1.40;1.00;;;;;;;19.81;45.08;96644.17;108682;1270;23877;-91
2023/06/13 06:51:23;;;;;;;1.70;0.90;;;;;;;18.69;45.80;96641.48;108734;1274;23532;-90
2023/06/13 06:53:56;;;;;;;0.90;0.70;;;;;;;18.47;47.14;96644.12;108655;1271;48193;-89
2023/06/13 06:56:28;;;;;;;1.70;1.00;;;;;;;18.93;47.99;96645.11;108673;1274;23304;-89
2023/06/13 06:58:59;;;;;;;1.50;1.10;;;;;;;19.63;48.05;96641.95;108678;1278;22515;-90
2023/06/13 07:01:33;;;;;;;2.60;1.20;;;;;;;20.09;47.70;96643.55;108721;1278;22521;-89
2023/06/13 07:04:07;;;;;;;1.10;1.00;;;;;;;20.49;47.09;96643.92;108661;1278;38257;-88
2023/06/13 07:06:38;;;;;;;2.20;0.90;;;;;;;20.41;46.67;96643.98;108681;1278;22575;-89
2023/06/13 07:09:11;;;;;;;1.60;0.80;;;;;;;20.68;46.99;96645.02;108650;1278;25333;-89
2023/06/13 07:11:45;;;;;;;1.60;1.20;;;;;;;20.63;45.79;96643.27;108701;1278;22759;-90
2023/06/13 07:14:18;;;;;;;1.40;1.00;;;;;;;20.09;45.74;96640.63;108614;1278;107166;-90
2023/06/13 07:16:57;;;;;;;1.30;1.00;;;;;;;20.02;45.79;96639.88;108694;1275;24220;-90
2023/06/13 07:19:28;;;;;;;1.00;0.90;;;;;;;19.79;45.86;96640.41;108654;1274;22105;-91
2023/06/13 07:22:02;;;;;;;3.90;1.00;;;;;;;19.41;45.86;96639.38;108673;1278;22543;-91
2023/06/13 07:24:33;;;;;;;1.20;0.90;;;;;;;18.93;45.72;96632.69;108704;1257;24390;-89
2023/06/13 07:27:05;;;;;;;1.20;1.10;;;;;;;18.25;46.27;96638.25;108687;1278;22532;-89
2023/06/13 07:29:37;;;;;;;1.70;1.10;;;;;;;17.86;47.09;96640.45;108678;1274;22550;-89
2023/06/13 07:32:10;;;;;;;4.10;1.00;;;;;;;17.53;47.51;96638.34;108657;1271;51584;-89
2023/06/13 07:34:41;;;;;;;1.00;0.80;;;;;;;17.18;47.86;96645.64;108695;1278;22531;-88
2023/06/13 07:37:12;;;;;;;3.50;1.20;;;;;;;16.87;48.40;96643.13;108725;1278;24453;-90
2023/06/13 07:39:44;;;;;;;1.50;1.10;;;;;;;16.40;48.56;96643.65;108695;1274;24250;-88
2023/06/13 07:42:16;;;;;;;0.80;0.80;;;;;;;16.11;49.36;96648.66;108638;1269;79388;-89
2023/06/13 07:44:47;;;;;;;1.50;1.00;;;;;;;15.95;49.71;96652.45;108658;1270;24022;-91
2023/06/13 07:47:20;;;;;;;2.80;1.00;;;;;;;15.45;49.49;96644.27;108727;1271;22530;-90
2023/06/13 07:49:52;;;;;;;2.10;1.20;;;;;;;15.06;50.55;96642.98;108694;1266;22524;-90
2023/06/13 07:52:23;;;;;;;1.30;1.00;;;;;;;14.94;51.46;96648.59;108635;1274;56620;-91
2023/06/13 07:54:59;;;;;;;2.60;1.40;;;;;;;14.83;51.76;96649.60;108694;1278;22595;-90
2023/06/13 07:57:31;;;;;;;1.80;1.30;;;;;;;14.48;52.35;96653.91;108712;1274;22528;-89
2023/06/13 08:00:12;;;;;;;1.50;1.40;;;;;;;14.37;53.25;96654.10;108663;1270;23244;-90
2023/06/13 08:02:44;;;;;;;2.70;1.40;;;;;;;14.15;53.39;96656.06;108652;1271;66861;-90
2023/06/13 08:05:20;;;;;;;2.90;1.50;;;;;;;13.86;53.95;96652.63;108670;1270;24468;-89
2023/06/13 08:07:53;;;;;;;4.50;1.30;;;;;;;13.75;54.81;96654.83;108677;1272;22538;-89
2023/06/13 08:10:27;;;;;;;2.30;1.60;;;;;;;13.68;54.97;96652.45;108688;1271;22563;-89
2023/06/13 08:13:04;;;;;;;1.80;1.10;;;;;;;13.58;55.36;96655.99;107179;1271;2052362;-89
2023/06/13 08:15:43;;;;;;;2.20;1.40;;;;;;;13.56;56.07;96656.20;108581;1270;22521;-89
2023/06/13 08:18:14;;;;;;;2.90;1.20;;;;;;;13.59;55.69;96659.66;108718;1279;22700;-90
2023/06/13 08:20:50;;;;;;;1.80;1.00;;;;;;;13.60;56.03;96662.23;108739;1278;22541;-88
2023/06/13 08:23:24;;;;;;;1.60;1.20;;;;;;;13.63;56.17;96667.98;108737;1274;51755;-89
2023/06/13 08:25:56;;;;;;;2.50;1.60;;;;;;;13.66;56.25;96672.16;108760;1272;23261;-90
2023/06/13 08:28:29;;;;;;;3.30;1.90;;;;;;;13.63;56.27;96670.50;108698;1278;22627;-89
2023/06/13 08:31:08;;;;;;;1.90;1.30;;;;;;;13.60;56.77;96669.23;108760;1278;22524;-89
2023/06/13 08:33:42;;;;;;;2.10;1.40;;;;;;;13.57;56.90;96676.48;108664;1267;59560;-88
2023/06/13 08:36:18;;;;;;;2.20;1.50;;;;;;;13.53;57.19;96675.18;108769;1268;22521;-89
2023/06/13 08:38:51;;;;;;;1.60;1.40;;;;;;;13.57;57.62;96676.48;108806;1271;22523;-89
2023/06/13 08:41:25;;;;;;;2.60;1.70;;;;;;;13.59;57.85;96674.77;108757;1270;22533;-88
2023/06/13 08:44:01;;;;;;;2.60;1.70;;;;;;;13.63;58.06;96672.94;107403;1271;1882243;-88
2023/06/13 08:46:36;;;;;;;2.90;1.80;;;;;;;13.73;58.58;96671.80;108662;1278;22538;-88
2023/06/13 08:49:07;;;;;;;3.60;1.50;;;;;;;13.85;58.46;96671.20;108767;1276;22534;-88
2023/06/13 08:51:41;;;;;;;2.60;1.60;;;;;;;13.99;58.45;96669.16;108731;1270;22525;-89
2023/06/13 08:54:16;;;;;;;1.60;1.30;;;;;;;14.20;58.61;96670.31;108688;1271;56915;-88
2023/06/13 08:56:52;;;;;;;1.50;1.10;;;;;;;14.40;58.38;96668.94;108685;1278;22521;-88
2023/06/13 08:59:31;;;;;;;2.30;1.80;;;;;;;14.52;58.05;96668.47;108687;1278;22550;-88
2023/06/13 09:02:06;;;;;;;2.40;1.50;;;;;;;14.62;57.79;96667.12;108680;1271;22596;-88
2023/06/13 09:04:43;;;;;;;2.20;1.50;;;;;;;14.70;57.66;96666.23;108664;1278;22523;-88
2023/06/13 09:07:18;;;;;;;2.90;1.50;;;;;;;14.73;57.20;96670.92;108664;1278;24371;-88
2023/06/13 09:09:50;;;;;;;2.20;1.50;;;;;;;14.62;56.76;96672.66;108788;1258;22501;-88
2023/06/13 09:12:32;;;;;;;2.90;1.80;;;;;;;14.40;56.79;96675.38;108606;1278;86932;-88
2023/06/13 09:15:04;;;;;;;2.00;1.50;;;;;;;14.36;57.44;96673.06;108669;1271;22578;-88
2023/06/13 09:17:40;;;;;;;2.00;1.30;;;;;;;14.38;57.64;96670.58;108713;1278;22553;-88
2023/06/13 09:20:12;;;;;;;3.70;1.60;;;;;;;14.38;57.86;96670.95;108701;1271;22564;-87
2023/06/13 09:22:46;;;;;;;1.80;1.30;;;;;;;14.39;57.74;96667.23;107265;1270;1795499;-87
2023/06/13 09:25:23;;;;;;;1.90;1.40;;;;;;;14.35;57.56;96663.65;108663;1272;22564;-88
2023/06/13 09:27:57;;;;;;;1.50;1.20;;;;;;;14.32;57.79;96663.02;108702;1278;22562;-87
2023/06/13 09:30:33;;;;;;;1.80;1.30;;;;;;;14.28;57.80;96662.42;108656;1278;22522;-88
2023/06/13 09:33:06;;;;;;;2.10;1.30;;;;;;;14.27;57.48;96659.28;107157;1270;2041926;-88
2023/06/13 09:35:39;;;;;;;2.10;1.50;;;;;;;14.23;57.28;96659.21;108657;1274;23055;-88
2023/06/13 09:38:14;;;;;;;1.60;1.40;;;;;;;14.15;57.32;96659.64;108669;1278;22595;-89
2023/06/13 09:40:50;;;;;;;1.70;1.40;;;;;;;14.02;57.09;96658.48;108658;1278;22575;-88
2023/06/13 09:43:23;;;;;;;1.90;1.20;;;;;;;13.88;57.21;96658.70;108609;1270;61127;-88
2023/06/13 09:45:54;;;;;;;1.40;1.30;;;;;;;13.79;57.40;96656.18;108678;1278;22538;-88
2023/06/13 09:48:38;;;;;;;2.20;1.20;;;;;;;13.77;57.93;96659.83;108635;1270;22600;-88
2023/06/13 09:51:16;;;;;;;1.90;1.10;;;;;;;13.85;57.85;96658.67;108683;1276;22514;-88
2023/06/13 09:53:48;;;;;;;1.50;1.00;;;;;;;13.96;57.94;96659.98;108623;1278;41429;-88
2023/06/13 09:56:25;;;;;;;1.30;1.20;;;;;;;14.11;57.63;96653.45;108636;1278;22524;-88
2023/06/13 09:58:56;;;;;;;1.40;1.20;;;;;;;14.20;57.26;96654.20;108652;1271;22522;-88
2023/06/13 10:01:31;;;;;;;3.50;1.30;;;;;;;14.32;57.74;96648.61;108695;1274;22541;-87
2023/06/13 10:04:05;;;;;;;2.60;1.10;;;;;;;14.41;57.62;96646.13;108633;1278;40863;-87
2023/06/13 10:06:41;;;;;;;1.70;1.50;;;;;;;14.40;56.96;96641.98;108662;1271;22520;-87
2023/06/13 10:09:13;;;;;;;1.20;1.00;;;;;;;14.38;57.20;96643.41;108635;1271;22560;-87
2023/06/13 10:11:53;;;;;;;3.00;1.00;;;;;;;14.41;57.34;96641.91;108648;1278;23439;-88
2023/06/13 10:14:28;;;;;;;1.20;0.90;;;;;;;14.47;57.58;96640.02;108621;1278;41493;-88
2023/06/13 10:17:18;;;;;;;1.20;0.70;;;;;;;14.53;57.10;96639.95;108660;1278;22536;-88
2023/06/13 10:19:57;;;;;;;1.50;0.80;;;;;;;14.58;56.65;96635.14;108652;1278;25370;-88
2023/06/13 10:22:35;;;;;;;1.30;1.10;;;;;;;14.58;56.63;96634.67;108618;1272;49652;-89
2023/06/13 10:25:13;;;;;;;2.00;0.70;;;;;;;14.56;56.80;96632.90;108654;1271;25277;-87
2023/06/13 10:27:51;;;;;;;1.60;1.00;;;;;;;14.61;56.99;96629.41;108675;1278;22520;-87
2023/06/13 10:30:59;;;;;;;1.70;0.90;;;;;;;14.64;57.14;96632.39;108641;1278;22520;-88
2023/06/13 10:33:47;;;;;;;1.40;0.70;;;;;;;14.68;57.11;96628.07;108555;1278;50401;-88
2023/06/13 10:36:27;;;;;;;0.80;0.60;;;;;;;14.69;56.71;96633.82;108671;1277;22518;-88
2023/06/13 10:39:29;;;;;;;1.00;0.90;;;;;;;14.63;56.56;96634.64;108611;1274;22528;-88
2023/06/13 10:42:20;;;;;;;1.60;0.80;;;;;;;14.59;56.34;96635.05;108598;1272;22517;-88
2023/06/13 10:45:03;;;;;;;1.30;0.90;;;;;;;14.59;56.44;96630.95;108626;1276;22634;-87
2023/06/13 10:47:50;;;;;;;2.90;0.80;;;;;;;14.65;56.66;96631.77;108650;1274;26054;-88
2023/06/13 10:50:27;;;;;;;0.70;0.60;;;;;;;14.67;56.68;96631.35;108642;1278;22796;-88
2023/06/13 10:52:58;;;;;;;1.00;0.70;;;;;;;14.70;57.00;96626.85;107058;1278;2071595;-88
2023/06/13 10:55:32;;;;;;;1.20;0.90;;;;;;;14.76;57.02;96625.20;108652;1278;22632;-88
2023/06/13 10:58:17;;;;;;;1.60;1.10;;;;;;;14.81;56.58;96628.28;108673;1278;22521;-88
2023/06/13 11:00:48;;;;;;;0.80;0.70;;;;;;;14.78;56.15;96625.48;108677;1278;22631;-88
2023/06/13 11:03:19;;;;;;;1.10;0.80;;;;;;;14.80;56.39;96624.16;108603;1271;45194;-88
2023/06/13 11:05:53;;;;;;;0.90;0.90;;;;;;;14.85;56.19;96624.41;108666;1278;22551;-88
2023/06/13 11:08:28;;;;;;;1.30;0.90;;;;;;;14.90;56.50;96627.22;108694;1278;22533;-88
2023/06/13 11:11:02;;;;;;;1.80;1.00;;;;;;;14.87;55.98;96625.52;108655;1278;25162;-88
2023/06/13 11:13:38;;;;;;;0.90;0.80;;;;;;;14.78;55.86;96622.23;107310;1278;1861267;-88
2023/06/13 11:16:38;;;;;;;1.00;0.80;;;;;;;14.80;56.01;96624.85;108540;1278;22534;-87
2023/06/13 11:19:15;;;;;;;2.30;1.00;;;;;;;14.97;56.07;96623.38;108635;1275;22556;-86
2023/06/13 11:21:50;;;;;;;1.30;0.90;;;;;;;15.11;55.69;96617.77;108640;1278;22524;-87
2023/06/13 11:24:23;;;;;;;0.80;0.80;;;;;;;15.07;55.64;96618.58;108648;1275;72939;-89
2023/06/13 11:26:57;;;;;;;1.00;0.90;;;;;;;15.08;55.42;96614.34;108654;1278;22572;-88
2023/06/13 11:29:33;;;;;;;1.20;0.80;;;;;;;15.04;55.60;96618.20;108647;1274;22537;-88
2023/06/13 11:32:08;;;;;;;0.80;0.70;;;;;;;15.06;55.56;96620.03;108640;1278;22816;-88
2023/06/13 11:34:44;;;;;;;1.30;0.90;;;;;;;15.07;55.35;96617.40;108588;1271;59418;-89
2023/06/13 11:37:28;;;;;;;1.80;1.10;;;;;;;15.00;55.02;96619.52;108677;1276;22578;-89
2023/06/13 11:40:04;;;;;;;1.10;0.70;;;;;;;14.89;54.93;96618.89;108664;1272;22527;-87
2023/06/13 11:42:41;;;;;;;2.00;0.90;;;;;;;14.89;55.37;96620.36;108695;1272;36350;-88
2023/06/13 11:45:15;;;;;;;2.00;0.80;;;;;;;14.81;55.05;96619.33;108681;1278;22542;-88
2023/06/13 11:47:58;;;;;;;1.60;0.80;;;;;;;14.68;55.16;96617.23;108682;1278;22541;-88
2023/06/13 11:50:38;;;;;;;1.40;1.00;;;;;;;14.63;55.44;96617.89;108680;1274;22562;-88
2023/06/13 11:53:13;;;;;;;0.80;0.80;;;;;;;14.56;55.40;96616.84;108653;1274;35158;-89
2023/06/13 11:55:46;;;;;;;1.00;0.90;;;;;;;14.38;55.59;96619.93;108658;1278;24507;-87
2023/06/13 11:58:30;;;;;;;0.70;0.60;;;;;;;14.34;56.02;96620.61;108655;1270;22541;-89
2023/06/13 12:01:02;;;;;;;1.20;0.80;;;;;;;14.34;56.16;96622.73;108660;1278;25266;-89
2023/06/13 12:03:38;;;;;;;1.20;0.80;;;;;;;14.32;56.40;96620.81;107248;1270;1897101;-88
2023/06/13 12:06:12;;;;;;;1.40;0.80;;;;;;;14.37;56.81;96620.62;108655;1278;22586;-89